sensor_id;sensor_type;location;lat;lon;timestamp;pressure;altitude;pressure_sealevel;temperature;humidity
20897;BME280;10608;42.600;23.398;2023-06-22T00:01:27;81938.34;;;-138.15;69.62
20897;BME280;10608;42.600;23.398;2023-06-22T00:03:52;81906.53;;;-138.15;68.31
20897;BME280;10608;42.600;23.398;2023-06-22T00:06:17;81894.63;;;-138.15;68.91
20897;BME280;10608;42.600;23.398;2023-06-22T00:08:43;81934.38;;;-138.15;69.36
20897;BME280;10608;42.600;23.398;2023-06-22T00:11:08;82019.81;;;-138.15;69.17
20897;BME280;10608;42.600;23.398;2023-06-22T00:13:34;81990.00;;;-138.15;68.95
20897;BME280;10608;42.600;23.398;2023-06-22T00:16:00;81986.03;;;-138.15;68.80
20897;BME280;10608;42.600;23.398;2023-06-22T00:18:25;81991.97;;;-138.15;69.60
20897;BME280;10608;42.600;23.398;2023-06-22T00:20:54;82075.44;;;-138.15;70.15
20897;BME280;10608;42.600;23.398;2023-06-22T00:23:23;82077.44;;;-138.15;69.72
20897;BME280;10608;42.600;23.398;2023-06-22T00:25:49;82101.25;;;-138.15;69.99
20897;BME280;10608;42.600;23.398;2023-06-22T00:28:15;82101.25;;;-138.15;71.72
20897;BME280;10608;42.600;23.398;2023-06-22T00:30:40;82135.03;;;-138.15;72.37
20897;BME280;10608;42.600;23.398;2023-06-22T00:33:06;82117.16;;;-138.15;73.23
20897;BME280;10608;42.600;23.398;2023-06-22T00:35:33;82188.69;;;-138.15;74.11
20897;BME280;10608;42.600;23.398;2023-06-22T00:37:59;82208.56;;;-138.15;74.42
20897;BME280;10608;42.600;23.398;2023-06-22T00:40:31;82248.31;;;-138.15;75.25
20897;BME280;10608;42.600;23.398;2023-06-22T00:42:57;82309.91;;;-138.15;76.79
20897;BME280;10608;42.600;23.398;2023-06-22T00:45:23;82268.19;;;-138.15;77.00
20897;BME280;10608;42.600;23.398;2023-06-22T00:47:52;82296.00;;;-138.15;77.27
20897;BME280;10608;42.600;23.398;2023-06-22T00:50:22;82296.00;;;-138.15;77.89
20897;BME280;10608;42.600;23.398;2023-06-22T00:52:51;82298.00;;;-138.15;79.18
20897;BME280;10608;42.600;23.398;2023-06-22T00:55:18;82268.19;;;-138.15;79.29
20897;BME280;10608;42.600;23.398;2023-06-22T00:57:45;82286.06;;;-138.15;79.61
20897;BME280;10608;42.600;23.398;2023-06-22T01:00:12;82349.66;;;-138.15;80.65
20897;BME280;10608;42.600;23.398;2023-06-22T01:02:44;82327.78;;;-138.15;81.08
20897;BME280;10608;42.600;23.398;2023-06-22T01:05:13;82349.66;;;-138.15;82.15
20897;BME280;10608;42.600;23.398;2023-06-22T01:07:44;82325.81;;;-138.15;82.66
20897;BME280;10608;42.600;23.398;2023-06-22T01:10:29;82371.50;;;-138.15;82.10
20897;BME280;10608;42.600;23.398;2023-06-22T01:13:05;82355.63;;;-138.15;81.45
20897;BME280;10608;42.600;23.398;2023-06-22T01:18:04;82260.22;;;-138.15;80.63
20897;BME280;10608;42.600;23.398;2023-06-22T01:20:30;82311.91;;;-138.15;80.84
20897;BME280;10608;42.600;23.398;2023-06-22T01:25:33;82309.91;;;-138.15;83.06
20897;BME280;10608;42.600;23.398;2023-06-22T01:30:57;82226.44;;;-138.15;81.56
20897;BME280;10608;42.600;23.398;2023-06-22T01:33:35;82220.50;;;-138.15;81.86
20897;BME280;10608;42.600;23.398;2023-06-22T01:36:03;82214.53;;;-138.15;82.11
20897;BME280;10608;42.600;23.398;2023-06-22T01:38:33;82180.75;;;-138.15;81.97
20897;BME280;10608;42.600;23.398;2023-06-22T01:40:59;82299.97;;;-138.15;81.37
20897;BME280;10608;42.600;23.398;2023-06-22T01:43:26;82214.53;;;-138.15;82.79
20897;BME280;10608;42.600;23.398;2023-06-22T01:45:54;82230.44;;;-138.15;83.80
20897;BME280;10608;42.600;23.398;2023-06-22T01:48:21;82210.56;;;-138.15;83.62
20897;BME280;10608;42.600;23.398;2023-06-22T01:50:47;82234.41;;;-138.15;82.68
20897;BME280;10608;42.600;23.398;2023-06-22T01:53:13;82252.28;;;-138.15;82.76
20897;BME280;10608;42.600;23.398;2023-06-22T01:55:38;82190.69;;;-138.15;82.31
20897;BME280;10608;42.600;23.398;2023-06-22T01:58:04;82244.34;;;-138.15;81.57
20897;BME280;10608;42.600;23.398;2023-06-22T02:00:33;82238.38;;;-138.15;80.61
20897;BME280;10608;42.600;23.398;2023-06-22T02:03:14;82284.06;;;-138.15;80.18
20897;BME280;10608;42.600;23.398;2023-06-22T02:05:49;82236.38;;;-138.15;81.93
20897;BME280;10608;42.600;23.398;2023-06-22T02:08:24;82260.22;;;-138.15;81.50
20897;BME280;10608;42.600;23.398;2023-06-22T02:10:51;82260.22;;;-138.15;81.07
20897;BME280;10608;42.600;23.398;2023-06-22T02:13:18;82286.06;;;-138.15;81.52
20897;BME280;10608;42.600;23.398;2023-06-22T02:15:45;82254.28;;;-138.15;79.78
20897;BME280;10608;42.600;23.398;2023-06-22T02:18:11;82270.16;;;-138.15;77.94
20897;BME280;10608;42.600;23.398;2023-06-22T02:20:37;82284.06;;;-138.15;76.65
20897;BME280;10608;42.600;23.398;2023-06-22T02:23:03;82206.59;;;-138.15;75.34
20897;BME280;10608;42.600;23.398;2023-06-22T02:25:28;82220.50;;;-138.15;75.14
20897;BME280;10608;42.600;23.398;2023-06-22T02:27:54;82232.41;;;-138.15;75.67
20897;BME280;10608;42.600;23.398;2023-06-22T02:30:19;82208.56;;;-138.15;76.81
20897;BME280;10608;42.600;23.398;2023-06-22T02:32:45;82258.25;;;-138.15;77.37
20897;BME280;10608;42.600;23.398;2023-06-22T02:35:10;82254.28;;;-138.15;79.07
20897;BME280;10608;42.600;23.398;2023-06-22T02:37:36;82292.03;;;-138.15;80.36
20897;BME280;10608;42.600;23.398;2023-06-22T02:40:05;82307.94;;;-138.15;81.57
20897;BME280;10608;42.600;23.398;2023-06-22T02:42:32;82276.13;;;-138.15;82.75
20897;BME280;10608;42.600;23.398;2023-06-22T02:44:57;82252.28;;;-138.15;81.36
20897;BME280;10608;42.600;23.398;2023-06-22T02:47:23;82232.41;;;-138.15;81.08
20897;BME280;10608;42.600;23.398;2023-06-22T02:49:48;82262.22;;;-138.15;79.39
20897;BME280;10608;42.600;23.398;2023-06-22T02:52:14;82200.63;;;-138.15;78.41
20897;BME280;10608;42.600;23.398;2023-06-22T02:54:39;82190.69;;;-138.15;78.31
20897;BME280;10608;42.600;23.398;2023-06-22T02:57:04;82230.44;;;-138.15;78.71
20897;BME280;10608;42.600;23.398;2023-06-22T02:59:30;82188.69;;;-138.15;78.72
20897;BME280;10608;42.600;23.398;2023-06-22T03:01:55;82212.53;;;-138.15;79.54
20897;BME280;10608;42.600;23.398;2023-06-22T03:04:21;82222.47;;;-138.15;79.47
20897;BME280;10608;42.600;23.398;2023-06-22T03:06:46;82216.53;;;-138.15;80.79
20897;BME280;10608;42.600;23.398;2023-06-22T03:09:16;82168.81;;;-138.15;80.28
20897;BME280;10608;42.600;23.398;2023-06-22T03:11:42;82170.81;;;-138.15;80.37
20897;BME280;10608;42.600;23.398;2023-06-22T03:14:08;82144.97;;;-138.15;79.80
20897;BME280;10608;42.600;23.398;2023-06-22T03:16:33;82115.19;;;-138.15;78.41
20897;BME280;10608;42.600;23.398;2023-06-22T03:18:59;82049.59;;;-138.15;77.35
20897;BME280;10608;42.600;23.398;2023-06-22T03:21:27;82019.81;;;-138.15;76.37
20897;BME280;10608;42.600;23.398;2023-06-22T03:23:53;81936.34;;;-138.15;73.25
20897;BME280;10608;42.600;23.398;2023-06-22T03:26:19;81831.03;;;-138.15;71.13
20897;BME280;10608;42.600;23.398;2023-06-22T03:28:44;81658.19;;;-138.15;67.50
20897;BME280;10608;42.600;23.398;2023-06-22T03:31:10;81509.19;;;-138.15;64.29
20897;BME280;10608;42.600;23.398;2023-06-22T03:33:35;81399.91;;;-138.15;62.16
20897;BME280;10608;42.600;23.398;2023-06-22T03:36:01;81254.88;;;-138.15;60.66
20897;BME280;10608;42.600;23.398;2023-06-22T03:38:26;81133.69;;;-138.15;58.61
20897;BME280;10608;42.600;23.398;2023-06-22T03:40:52;81068.16;;;-138.15;56.63
20897;BME280;10608;42.600;23.398;2023-06-22T03:43:17;80998.63;;;-138.15;55.31
20897;BME280;10608;42.600;23.398;2023-06-22T03:45:42;80887.38;;;-138.15;53.79
20897;BME280;10608;42.600;23.398;2023-06-22T03:48:10;80815.88;;;-138.15;53.58
20897;BME280;10608;42.600;23.398;2023-06-22T03:50:36;80680.78;;;-138.15;50.93
20897;BME280;10608;42.600;23.398;2023-06-22T03:53:01;80547.72;;;-138.15;49.36
20897;BME280;10608;42.600;23.398;2023-06-22T03:55:27;80357.03;;;-138.15;48.30
20897;BME280;10608;42.600;23.398;2023-06-22T03:57:53;80245.81;;;-138.15;46.04
20897;BME280;10608;42.600;23.398;2023-06-22T04:14:05;79558.69;;;-138.15;40.18
20897;BME280;10608;42.600;23.398;2023-06-22T04:16:30;79630.16;;;-138.15;40.55
20897;BME280;10608;42.600;23.398;2023-06-22T04:18:56;79564.63;;;-138.15;41.24
20897;BME280;10608;42.600;23.398;2023-06-22T04:21:21;79886.34;;;-138.15;41.99
20897;BME280;10608;42.600;23.398;2023-06-22T04:23:46;79769.16;;;-138.15;41.81
20897;BME280;10608;42.600;23.398;2023-06-22T04:26:13;79588.47;;;-138.15;41.34
20897;BME280;10608;42.600;23.398;2023-06-22T04:28:39;79556.69;;;-138.15;40.46
20897;BME280;10608;42.600;23.398;2023-06-22T04:31:05;79808.88;;;-138.15;41.77
20897;BME280;10608;42.600;23.398;2023-06-22T04:33:30;79791.03;;;-138.15;41.86
20897;BME280;10608;42.600;23.398;2023-06-22T04:35:56;79554.69;;;-138.15;40.65
20897;BME280;10608;42.600;23.398;2023-06-22T04:38:29;79507.03;;;-138.15;40.29
20897;BME280;10608;42.600;23.398;2023-06-22T04:40:58;79475.28;;;-138.15;40.36
20897;BME280;10608;42.600;23.398;2023-06-22T04:43:23;79362.09;;;-138.15;40.34
20897;BME280;10608;42.600;23.398;2023-06-22T04:45:49;79197.28;;;-138.15;39.10
20897;BME280;10608;42.600;23.398;2023-06-22T04:48:17;79252.88;;;-138.15;39.68
20897;BME280;10608;42.600;23.398;2023-06-22T04:50:43;79274.72;;;-138.15;39.63
20897;BME280;10608;42.600;23.398;2023-06-22T04:53:09;79189.34;;;-138.15;39.57
20897;BME280;10608;42.600;23.398;2023-06-22T04:55:39;79338.25;;;-138.15;39.37
20897;BME280;10608;42.600;23.398;2023-06-22T04:58:07;79264.78;;;-138.15;39.59
20897;BME280;10608;42.600;23.398;2023-06-22T05:00:32;79090.06;;;-138.15;38.53
20897;BME280;10608;42.600;23.398;2023-06-22T05:03:02;79217.13;;;-138.15;38.95
20897;BME280;10608;42.600;23.398;2023-06-22T05:05:28;78776.34;;;-138.15;36.97
20897;BME280;10608;42.600;23.398;2023-06-22T05:07:56;78484.50;;;-138.15;35.67
20897;BME280;10608;42.600;23.398;2023-06-22T05:10:25;78282.03;;;-138.15;34.13
20897;BME280;10608;42.600;23.398;2023-06-22T05:12:50;78280.03;;;-138.15;33.96
20897;BME280;10608;42.600;23.398;2023-06-22T05:15:16;77938.63;;;-138.15;33.50
20897;BME280;10608;42.600;23.398;2023-06-22T05:17:41;77811.56;;;-138.15;32.69
20897;BME280;10608;42.600;23.398;2023-06-22T05:20:13;77601.19;;;-138.15;32.30
20897;BME280;10608;42.600;23.398;2023-06-22T05:22:39;77307.44;;;-138.15;31.20
20897;BME280;10608;42.600;23.398;2023-06-22T05:25:10;77091.13;;;-138.15;30.25
20897;BME280;10608;42.600;23.398;2023-06-22T05:27:36;77321.34;;;-138.15;30.04
20897;BME280;10608;42.600;23.398;2023-06-22T05:30:06;77561.47;;;-138.15;31.33
20897;BME280;10608;42.600;23.398;2023-06-22T05:32:32;77390.78;;;-138.15;30.88
20897;BME280;10608;42.600;23.398;2023-06-22T05:34:58;77301.50;;;-138.15;30.83
20897;BME280;10608;42.600;23.398;2023-06-22T05:37:24;77410.66;;;-138.15;30.20
20897;BME280;10608;42.600;23.398;2023-06-22T05:39:49;77140.72;;;-138.15;30.19
20897;BME280;10608;42.600;23.398;2023-06-22T05:42:14;77029.59;;;-138.15;30.49
20897;BME280;10608;42.600;23.398;2023-06-22T05:44:40;77059.38;;;-138.15;31.11
20897;BME280;10608;42.600;23.398;2023-06-22T05:47:06;77015.72;;;-138.15;30.66
20897;BME280;10608;42.600;23.398;2023-06-22T05:49:31;76892.66;;;-138.15;30.91
20897;BME280;10608;42.600;23.398;2023-06-22T05:51:58;77154.63;;;-138.15;31.80
20897;BME280;10608;42.600;23.398;2023-06-22T05:54:24;77099.06;;;-138.15;30.88
20897;BME280;10608;42.600;23.398;2023-06-22T05:56:50;77418.59;;;-138.15;31.46
20897;BME280;10608;42.600;23.398;2023-06-22T05:59:15;77263.78;;;-138.15;30.98
20897;BME280;10608;42.600;23.398;2023-06-22T06:01:41;76926.41;;;-138.15;30.06
20897;BME280;10608;42.600;23.398;2023-06-22T06:04:06;76704.16;;;-138.15;30.25
20897;BME280;10608;42.600;23.398;2023-06-22T06:06:34;76882.75;;;-138.15;29.61
20897;BME280;10608;42.600;23.398;2023-06-22T06:09:03;76878.78;;;-138.15;30.04
20897;BME280;10608;42.600;23.398;2023-06-22T06:11:29;76581.13;;;-138.15;29.44
20897;BME280;10608;42.600;23.398;2023-06-22T06:13:54;76797.41;;;-138.15;29.60
20897;BME280;10608;42.600;23.398;2023-06-22T06:16:19;76394.59;;;-138.15;28.41
20897;BME280;10608;42.600;23.398;2023-06-22T06:18:45;76196.19;;;-138.15;27.38
20897;BME280;10608;42.600;23.398;2023-06-22T06:21:10;76396.59;;;-138.15;28.15
20897;BME280;10608;42.600;23.398;2023-06-22T06:23:35;76192.22;;;-138.15;28.25
20897;BME280;10608;42.600;23.398;2023-06-22T06:26:01;76031.50;;;-138.15;28.42
20897;BME280;10608;42.600;23.398;2023-06-22T06:28:26;75680.34;;;-138.15;27.33
20897;BME280;10608;42.600;23.398;2023-06-22T06:30:52;76005.72;;;-138.15;27.71
20897;BME280;10608;42.600;23.398;2023-06-22T06:33:17;76331.09;;;-138.15;28.71
20897;BME280;10608;42.600;23.398;2023-06-22T06:35:43;76696.22;;;-138.15;29.49
20897;BME280;10608;42.600;23.398;2023-06-22T06:38:08;75918.41;;;-138.15;28.28
20897;BME280;10608;42.600;23.398;2023-06-22T06:40:33;76255.72;;;-138.15;28.77
20897;BME280;10608;42.600;23.398;2023-06-22T06:42:59;76013.66;;;-138.15;28.28
20897;BME280;10608;42.600;23.398;2023-06-22T06:45:24;75602.97;;;-138.15;26.98
20897;BME280;10608;42.600;23.398;2023-06-22T06:47:51;75680.34;;;-138.15;26.96
20897;BME280;10608;42.600;23.398;2023-06-22T06:50:17;76303.34;;;-138.15;27.72
20897;BME280;10608;42.600;23.398;2023-06-22T06:52:43;75549.41;;;-138.15;27.67
20897;BME280;10608;42.600;23.398;2023-06-22T06:55:09;74813.50;;;-138.15;25.76
20897;BME280;10608;42.600;23.398;2023-06-22T06:57:38;74992.00;;;-138.15;24.93
20897;BME280;10608;42.600;23.398;2023-06-22T07:00:06;75001.94;;;-138.15;25.42
20897;BME280;10608;42.600;23.398;2023-06-22T07:02:35;74529.88;;;-138.15;24.54
20897;BME280;10608;42.600;23.398;2023-06-22T07:05:00;74256.19;;;-138.15;24.25
20897;BME280;10608;42.600;23.398;2023-06-22T07:07:29;73946.84;;;-138.15;23.83
20897;BME280;10608;42.600;23.398;2023-06-22T07:09:54;73746.56;;;-138.15;23.23
20897;BME280;10608;42.600;23.398;2023-06-22T07:12:20;74161.00;;;-138.15;23.99
20897;BME280;10608;42.600;23.398;2023-06-22T07:14:46;74042.03;;;-138.15;23.88
20897;BME280;10608;42.600;23.398;2023-06-22T07:17:11;75041.59;;;-138.15;24.84
20897;BME280;10608;42.600;23.398;2023-06-22T07:19:37;74724.25;;;-138.15;25.45
20897;BME280;10608;42.600;23.398;2023-06-22T07:22:02;74676.66;;;-138.15;24.66
20897;BME280;10608;42.600;23.398;2023-06-22T07:24:28;74575.50;;;-138.15;24.70
20897;BME280;10608;42.600;23.398;2023-06-22T07:26:53;75446.25;;;-138.15;26.03
20897;BME280;10608;42.600;23.398;2023-06-22T07:29:20;75279.63;;;-138.15;25.26
20897;BME280;10608;42.600;23.398;2023-06-22T07:31:46;74799.63;;;-138.15;25.48
20897;BME280;10608;42.600;23.398;2023-06-22T07:34:12;73716.81;;;-138.15;23.67
20897;BME280;10608;42.600;23.398;2023-06-22T07:36:38;73312.34;;;-138.15;23.82
20897;BME280;10608;42.600;23.398;2023-06-22T07:39:03;72562.94;;;-138.15;22.44
20897;BME280;10608;42.600;23.398;2023-06-22T07:41:29;72826.59;;;-138.15;22.35
20897;BME280;10608;42.600;23.398;2023-06-22T07:43:55;72634.31;;;-138.15;21.13
20897;BME280;10608;42.600;23.398;2023-06-22T07:46:20;72636.28;;;-138.15;21.59
20897;BME280;10608;42.600;23.398;2023-06-22T07:48:45;72424.19;;;-138.15;23.05
20897;BME280;10608;42.600;23.398;2023-06-22T07:51:11;72444.00;;;-138.15;22.66
20897;BME280;10608;42.600;23.398;2023-06-22T07:53:39;72713.59;;;-138.15;22.72
20897;BME280;10608;42.600;23.398;2023-06-22T07:56:05;72899.97;;;-138.15;22.85
20897;BME280;10608;42.600;23.398;2023-06-22T07:58:32;73637.50;;;-138.15;23.64
20897;BME280;10608;42.600;23.398;2023-06-22T08:00:58;72941.59;;;-138.15;24.01
20897;BME280;10608;42.600;23.398;2023-06-22T08:03:23;72638.28;;;-138.15;23.31
20897;BME280;10608;42.600;23.398;2023-06-22T08:05:49;72273.53;;;-138.15;22.22
20897;BME280;10608;42.600;23.398;2023-06-22T08:08:15;72053.53;;;-138.15;22.22
20897;BME280;10608;42.600;23.398;2023-06-22T08:10:40;71900.91;;;-138.15;22.25
20897;BME280;10608;42.600;23.398;2023-06-22T08:13:07;71682.91;;;-138.15;21.47
20897;BME280;10608;42.600;23.398;2023-06-22T08:15:32;71512.47;;;-138.15;22.07
20897;BME280;10608;42.600;23.398;2023-06-22T08:17:57;71139.91;;;-138.15;20.94
20897;BME280;10608;42.600;23.398;2023-06-22T08:20:24;71667.06;;;-138.15;20.85
20897;BME280;10608;42.600;23.398;2023-06-22T08:22:49;71667.06;;;-138.15;21.76
20897;BME280;10608;42.600;23.398;2023-06-22T08:25:15;72113.00;;;-138.15;22.58
20897;BME280;10608;42.600;23.398;2023-06-22T08:27:40;73447.16;;;-138.15;22.87
20897;BME280;10608;42.600;23.398;2023-06-22T08:30:09;74274.03;;;-138.15;24.96
20897;BME280;10608;42.600;23.398;2023-06-22T08:32:36;74395.03;;;-138.15;24.96
20897;BME280;10608;42.600;23.398;2023-06-22T08:35:01;74571.53;;;-138.15;24.69
20897;BME280;10608;42.600;23.398;2023-06-22T08:37:27;74510.06;;;-138.15;26.75
20897;BME280;10608;42.600;23.398;2023-06-22T08:39:59;73895.28;;;-138.15;24.80
20897;BME280;10608;42.600;23.398;2023-06-22T08:42:26;72913.84;;;-138.15;23.35
20897;BME280;10608;42.600;23.398;2023-06-22T08:44:52;72745.31;;;-138.15;23.46
20897;BME280;10608;42.600;23.398;2023-06-22T08:47:18;72739.38;;;-138.15;22.82
20897;BME280;10608;42.600;23.398;2023-06-22T08:49:43;73264.75;;;-138.15;23.17
20897;BME280;10608;42.600;23.398;2023-06-22T08:52:09;73034.78;;;-138.15;23.64
20897;BME280;10608;42.600;23.398;2023-06-22T08:54:34;72673.97;;;-138.15;23.90
20897;BME280;10608;42.600;23.398;2023-06-22T08:57:01;73266.72;;;-138.15;23.29
20897;BME280;10608;42.600;23.398;2023-06-22T08:59:26;73756.47;;;-138.15;23.47
20897;BME280;10608;42.600;23.398;2023-06-22T09:01:51;73784.25;;;-138.15;23.50
20897;BME280;10608;42.600;23.398;2023-06-22T09:04:17;73675.19;;;-138.15;23.77
20897;BME280;10608;42.600;23.398;2023-06-22T09:06:42;73328.19;;;-138.15;23.24
20897;BME280;10608;42.600;23.398;2023-06-22T09:09:15;72812.72;;;-138.15;23.09
20897;BME280;10608;42.600;23.398;2023-06-22T09:11:41;71873.16;;;-138.15;22.43
20897;BME280;10608;42.600;23.398;2023-06-22T09:14:07;70775.31;;;-138.15;21.22
20897;BME280;10608;42.600;23.398;2023-06-22T09:16:33;70266.13;;;-138.15;21.04
20897;BME280;10608;42.600;23.398;2023-06-22T09:18:59;70686.16;;;-138.15;20.35
20897;BME280;10608;42.600;23.398;2023-06-22T09:21:24;70509.81;;;-138.15;21.24
20897;BME280;10608;42.600;23.398;2023-06-22T09:23:50;70559.34;;;-138.15;18.92
20897;BME280;10608;42.600;23.398;2023-06-22T09:26:19;70688.13;;;-138.15;20.90
20897;BME280;10608;42.600;23.398;2023-06-22T09:28:45;70303.75;;;-138.15;20.03
20897;BME280;10608;42.600;23.398;2023-06-22T09:31:11;71157.75;;;-138.15;20.07
20897;BME280;10608;42.600;23.398;2023-06-22T09:33:37;72192.28;;;-138.15;21.12
20897;BME280;10608;42.600;23.398;2023-06-22T09:36:06;73284.56;;;-138.15;21.98
20897;BME280;10608;42.600;23.398;2023-06-22T09:38:38;72828.59;;;-138.15;22.27
20897;BME280;10608;42.600;23.398;2023-06-22T09:41:03;72109.03;;;-138.15;21.47
20897;BME280;10608;42.600;23.398;2023-06-22T09:43:30;72951.50;;;-138.15;21.79
20897;BME280;10608;42.600;23.398;2023-06-22T09:45:56;72656.13;;;-138.15;21.09
20897;BME280;10608;42.600;23.398;2023-06-22T09:48:22;71417.34;;;-138.15;19.91
20897;BME280;10608;42.600;23.398;2023-06-22T09:50:47;70046.22;;;-138.15;19.76
20897;BME280;10608;42.600;23.398;2023-06-22T09:53:12;69142.94;;;-138.15;19.51
20897;BME280;10608;42.600;23.398;2023-06-22T09:55:38;71175.56;;;-138.15;18.96
20897;BME280;10608;42.600;23.398;2023-06-22T09:58:03;70912.03;;;-138.15;19.39
20897;BME280;10608;42.600;23.398;2023-06-22T10:00:29;72225.97;;;-138.15;19.91
20897;BME280;10608;42.600;23.398;2023-06-22T10:02:54;73318.28;;;-138.15;21.39
20897;BME280;10608;42.600;23.398;2023-06-22T10:05:21;73950.81;;;-138.15;23.28
20897;BME280;10608;42.600;23.398;2023-06-22T10:07:47;75188.38;;;-138.15;24.02
20897;BME280;10608;42.600;23.398;2023-06-22T10:10:12;75858.91;;;-138.15;26.43
20897;BME280;10608;42.600;23.398;2023-06-22T10:12:55;75799.38;;;-138.15;25.79
20897;BME280;10608;42.600;23.398;2023-06-22T10:15:20;75823.19;;;-138.15;24.35
20897;BME280;10608;42.600;23.398;2023-06-22T10:17:46;75761.69;;;-138.15;24.70
20897;BME280;10608;42.600;23.398;2023-06-22T10:20:12;75682.34;;;-138.15;26.20
20897;BME280;10608;42.600;23.398;2023-06-22T10:22:43;76005.72;;;-138.15;26.34
20897;BME280;10608;42.600;23.398;2023-06-22T10:25:09;75870.81;;;-138.15;27.42
20897;BME280;10608;42.600;23.398;2023-06-22T10:27:35;75710.09;;;-138.15;24.91
20897;BME280;10608;42.600;23.398;2023-06-22T10:30:01;75658.53;;;-138.15;26.16
20897;BME280;10608;42.600;23.398;2023-06-22T10:32:27;75579.19;;;-138.15;26.63
20897;BME280;10608;42.600;23.398;2023-06-22T10:34:54;75724.00;;;-138.15;25.46
20897;BME280;10608;42.600;23.398;2023-06-22T10:37:19;75789.47;;;-138.15;25.51
20897;BME280;10608;42.600;23.398;2023-06-22T10:39:45;75751.78;;;-138.15;24.84
20897;BME280;10608;42.600;23.398;2023-06-22T10:42:11;75680.34;;;-138.15;25.04
20897;BME280;10608;42.600;23.398;2023-06-22T10:44:36;75866.84;;;-138.15;24.83
20897;BME280;10608;42.600;23.398;2023-06-22T10:47:02;76140.63;;;-138.15;24.42
20897;BME280;10608;42.600;23.398;2023-06-22T10:49:27;76144.59;;;-138.15;26.64
20897;BME280;10608;42.600;23.398;2023-06-22T10:51:53;76073.19;;;-138.15;25.63
20897;BME280;10608;42.600;23.398;2023-06-22T10:54:18;75972.00;;;-138.15;25.80
20897;BME280;10608;42.600;23.398;2023-06-22T10:56:44;75864.84;;;-138.15;25.76
20897;BME280;10608;42.600;23.398;2023-06-22T10:59:10;75854.94;;;-138.15;25.71
20897;BME280;10608;42.600;23.398;2023-06-22T11:01:35;76116.81;;;-138.15;24.30
20897;BME280;10608;42.600;23.398;2023-06-22T11:04:02;76243.81;;;-138.15;25.50
20897;BME280;10608;42.600;23.398;2023-06-22T11:06:27;75912.47;;;-138.15;25.00
20897;BME280;10608;42.600;23.398;2023-06-22T11:08:53;75950.16;;;-138.15;26.53
20897;BME280;10608;42.600;23.398;2023-06-22T11:11:18;75900.56;;;-138.15;25.41
20897;BME280;10608;42.600;23.398;2023-06-22T11:13:43;75819.22;;;-138.15;25.68
20897;BME280;10608;42.600;23.398;2023-06-22T11:16:10;75712.09;;;-138.15;26.08
20897;BME280;10608;42.600;23.398;2023-06-22T11:18:35;75827.16;;;-138.15;25.62
20897;BME280;10608;42.600;23.398;2023-06-22T11:21:01;75896.59;;;-138.15;25.03
20897;BME280;10608;42.600;23.398;2023-06-22T11:23:27;75898.59;;;-138.15;24.33
20897;BME280;10608;42.600;23.398;2023-06-22T11:25:54;76029.53;;;-138.15;25.58
20897;BME280;10608;42.600;23.398;2023-06-22T11:28:19;76186.25;;;-138.15;25.65
20897;BME280;10608;42.600;23.398;2023-06-22T11:30:45;76027.53;;;-138.15;26.65
20897;BME280;10608;42.600;23.398;2023-06-22T11:33:10;75962.06;;;-138.15;24.35
20897;BME280;10608;42.600;23.398;2023-06-22T11:35:36;75862.88;;;-138.15;25.83
20897;BME280;10608;42.600;23.398;2023-06-22T11:38:01;75894.63;;;-138.15;25.15
20897;BME280;10608;42.600;23.398;2023-06-22T11:40:28;75884.69;;;-138.15;26.42
20897;BME280;10608;42.600;23.398;2023-06-22T11:42:54;75773.59;;;-138.15;24.88
20897;BME280;10608;42.600;23.398;2023-06-22T11:45:19;75920.41;;;-138.15;26.08
20897;BME280;10608;42.600;23.398;2023-06-22T11:47:45;75970.00;;;-138.15;25.89
20897;BME280;10608;42.600;23.398;2023-06-22T11:50:11;75997.78;;;-138.15;25.05
20897;BME280;10608;42.600;23.398;2023-06-22T11:52:36;75878.75;;;-138.15;26.28
20897;BME280;10608;42.600;23.398;2023-06-22T11:55:02;76739.88;;;-138.15;26.63
20897;BME280;10608;42.600;23.398;2023-06-22T11:57:29;76460.09;;;-138.15;25.60
20897;BME280;10608;42.600;23.398;2023-06-22T11:59:54;76521.59;;;-138.15;26.78
20897;BME280;10608;42.600;23.398;2023-06-22T12:02:20;76315.22;;;-138.15;26.87
20897;BME280;10608;42.600;23.398;2023-06-22T12:04:45;76299.38;;;-138.15;25.78
20897;BME280;10608;42.600;23.398;2023-06-22T12:07:11;76089.03;;;-138.15;27.57
20897;BME280;10608;42.600;23.398;2023-06-22T12:09:37;75878.75;;;-138.15;26.65
20897;BME280;10608;42.600;23.398;2023-06-22T12:12:02;75799.38;;;-138.15;26.38
20897;BME280;10608;42.600;23.398;2023-06-22T12:14:28;75769.63;;;-138.15;26.18
20897;BME280;10608;42.600;23.398;2023-06-22T12:16:53;75755.75;;;-138.15;26.15
20897;BME280;10608;42.600;23.398;2023-06-22T12:19:19;76017.63;;;-138.15;25.71
20897;BME280;10608;42.600;23.398;2023-06-22T12:21:44;76100.94;;;-138.15;25.42
20897;BME280;10608;42.600;23.398;2023-06-22T12:24:11;76231.91;;;-138.15;25.80
20897;BME280;10608;42.600;23.398;2023-06-22T12:26:36;76567.22;;;-138.15;26.75
20897;BME280;10608;42.600;23.398;2023-06-22T12:29:01;77466.22;;;-138.15;29.92
20897;BME280;10608;42.600;23.398;2023-06-22T12:31:27;77914.78;;;-138.15;32.79
20897;BME280;10608;42.600;23.398;2023-06-22T12:33:52;78305.84;;;-138.15;35.08
20897;BME280;10608;42.600;23.398;2023-06-22T12:36:18;78399.16;;;-138.15;35.96
20897;BME280;10608;42.600;23.398;2023-06-22T12:38:43;78629.44;;;-138.15;38.53
20897;BME280;10608;42.600;23.398;2023-06-22T12:41:09;78629.44;;;-138.15;39.05
20897;BME280;10608;42.600;23.398;2023-06-22T12:43:34;78851.81;;;-138.15;45.07
20897;BME280;10608;42.600;23.398;2023-06-22T12:45:59;79050.34;;;-138.15;47.01
20897;BME280;10608;42.600;23.398;2023-06-22T12:48:26;79181.41;;;-138.15;100.00